Time;durP1;ratioP1;P1;durP2;ratioP2;P2;SDS_P1;SDS_P2;PMS_P1;PMS_P2;Temp;Humidity;BMP_temperature;BMP_pressure;BME280_temperature;BME280_humidity;BME280_pressure;Samples;Min_cycle;Max_cycle;Signal;HPM_P1;HPM_P2
2022/10/06 00:02:21;;;;;;;3.00;0.97;;;15.30;1.00;;;;;;5083093;28;20242;-55
2022/10/06 00:04:46;;;;;;;1.50;1.07;;;15.40;99.90;;;;;;5076591;28;20488;-56
2022/10/06 00:07:13;;;;;;;1.13;1.00;;;15.40;99.90;;;;;;5087274;28;20497;-55
2022/10/06 00:09:39;;;;;;;3.57;1.00;;;15.40;99.90;;;;;;5073709;28;20189;-55
2022/10/06 00:12:04;;;;;;;2.13;0.80;;;15.40;45.80;;;;;;5070707;28;20436;-56
2022/10/06 00:14:30;;;;;;;1.37;1.10;;;15.40;1.00;;;;;;5071473;28;20229;-56
2022/10/06 00:16:55;;;;;;;1.83;1.23;;;15.40;1.00;;;;;;5069680;28;20190;-55
2022/10/06 00:19:21;;;;;;;0.90;0.80;;;15.40;1.00;;;;;;5071405;28;20210;-56
2022/10/06 00:21:47;;;;;;;3.93;1.00;;;15.40;1.00;;;;;;5090168;28;20174;-56
2022/10/06 00:24:13;;;;;;;2.47;0.90;;;15.40;1.00;;;;;;5076474;28;20795;-56
2022/10/06 00:26:38;;;;;;;4.13;1.17;;;15.30;1.00;;;;;;5069734;28;20596;-56
2022/10/06 00:29:04;;;;;;;0.97;0.87;;;15.30;1.00;;;;;;5082187;28;20189;-56
2022/10/06 00:31:29;;;;;;;1.77;1.00;;;15.30;1.00;;;;;;5088164;28;20204;-56
2022/10/06 00:33:55;;;;;;;3.67;1.03;;;15.30;1.00;;;;;;5075037;28;20194;-56
2022/10/06 00:36:20;;;;;;;1.87;0.97;;;15.30;1.00;;;;;;5076091;28;20220;-57
2022/10/06 00:38:46;;;;;;;0.90;0.90;;;15.30;1.00;;;;;;5072057;28;20536;-55
2022/10/06 00:41:13;;;;;;;3.10;1.10;;;15.30;1.00;;;;;;5069591;28;20253;-57
2022/10/06 00:43:55;;;;;;;4.13;1.17;;;15.30;1.00;;;;;;5074122;28;20623;-56
2022/10/06 00:46:49;;;;;;;2.97;1.10;;;15.30;1.00;;;;;;5072389;28;20541;-55
2022/10/06 00:49:16;;;;;;;2.73;0.97;;;15.30;1.00;;;;;;5069611;28;20474;-56
2022/10/06 00:51:48;;;;;;;1.93;1.10;;;15.20;1.00;;;;;;5072670;28;20933;-56
2022/10/06 00:54:15;;;;;;;6.77;1.00;;;15.20;1.00;;;;;;5069847;28;20991;-57
2022/10/06 00:56:41;;;;;;;2.43;1.03;;;15.10;1.00;;;;;;5075010;28;20519;-56
2022/10/06 00:59:16;;;;;;;1.40;1.20;;;15.10;1.00;;;;;;5084481;28;20443;-56
2022/10/06 01:01:55;;;;;;;1.10;0.80;;;15.10;1.00;;;;;;5083551;28;20451;-56
2022/10/06 01:04:22;;;;;;;3.50;1.03;;;15.00;1.00;;;;;;5076198;28;20840;-55
2022/10/06 01:06:54;;;;;;;1.37;1.00;;;15.00;1.00;;;;;;5077316;28;20474;-56
2022/10/06 01:09:21;;;;;;;1.40;1.20;;;15.00;1.00;;;;;;5081275;28;20941;-55
2022/10/06 01:11:51;;;;;;;1.80;0.97;;;15.00;1.00;;;;;;5077395;28;20497;-56
2022/10/06 01:14:18;;;;;;;1.50;1.17;;;15.00;1.00;;;;;;5082479;28;20472;-57
2022/10/06 01:16:50;;;;;;;0.90;0.80;;;14.90;1.00;;;;;;5085648;28;21208;-57
2022/10/06 01:19:46;;;;;;;12.77;2.27;;;14.90;1.00;;;;;;5079438;28;20445;-56
2022/10/06 01:22:15;;;;;;;2.30;0.90;;;14.80;1.00;;;;;;5070676;28;20432;-55
2022/10/06 01:24:41;;;;;;;1.80;0.70;;;14.70;1.00;;;;;;5073230;28;20936;-55
2022/10/06 01:27:07;;;;;;;2.67;1.33;;;14.70;1.00;;;;;;5085091;28;20432;-56
2022/10/06 01:29:34;;;;;;;2.60;0.90;;;14.60;1.00;;;;;;5078039;28;20447;-56
2022/10/06 01:32:00;;;;;;;5.57;0.90;;;14.60;1.00;;;;;;5070370;28;20459;-56
2022/10/06 01:34:27;;;;;;;8.90;1.50;;;14.50;19.50;;;;;;5084121;28;20528;-55
2022/10/06 01:36:52;;;;;;;2.07;0.90;;;14.50;38.00;;;;;;5086027;28;20426;-55
2022/10/06 01:39:18;;;;;;;3.63;1.37;;;14.50;51.20;;;;;;5081337;28;20432;-55
2022/10/06 01:41:46;;;;;;;2.70;0.90;;;14.50;42.50;;;;;;5079088;28;20974;-55
2022/10/06 01:44:12;;;;;;;3.83;1.00;;;14.40;54.90;;;;;;5064844;28;20204;-55
2022/10/06 01:46:38;;;;;;;1.83;0.80;;;14.40;59.70;;;;;;5083502;28;20958;-56
2022/10/06 01:49:04;;;;;;;1.63;0.90;;;14.40;64.00;;;;;;5072285;28;20447;-57
2022/10/06 01:51:29;;;;;;;2.73;0.90;;;14.30;88.60;;;;;;5063546;28;20202;-54
2022/10/06 01:53:55;;;;;;;2.10;0.93;;;14.30;99.90;;;;;;5075276;28;20654;-56
2022/10/06 01:56:20;;;;;;;3.17;0.93;;;14.30;99.90;;;;;;5071023;28;20553;-56
2022/10/06 01:58:47;;;;;;;2.17;1.07;;;14.20;99.90;;;;;;5071724;28;20302;-56
2022/10/06 02:01:12;;;;;;;2.10;1.00;;;14.20;99.90;;;;;;5068345;28;20189;-56
2022/10/06 02:03:39;;;;;;;1.90;1.00;;;14.10;99.90;;;;;;5076714;28;20919;-53
2022/10/06 02:06:06;;;;;;;2.87;0.63;;;14.00;99.90;;;;;;5092489;28;20185;-56
2022/10/06 02:08:32;;;;;;;2.90;0.90;;;14.00;99.90;;;;;;5088180;28;20437;-57
2022/10/06 02:10:58;;;;;;;3.57;1.10;;;14.00;99.90;;;;;;5091175;28;20422;-57
2022/10/06 02:13:26;;;;;;;2.57;1.00;;;14.00;99.90;;;;;;5074129;28;20566;-58
2022/10/06 02:15:56;;;;;;;2.80;1.00;;;14.00;99.90;;;;;;5081409;28;20466;-55
2022/10/06 02:18:22;;;;;;;3.43;1.00;;;14.00;99.90;;;;;;5076833;28;20581;-56
2022/10/06 02:20:47;;;;;;;1.77;1.17;;;14.00;99.90;;;;;;5077840;28;20518;-56
2022/10/06 02:23:13;;;;;;;3.00;1.00;;;14.00;99.90;;;;;;5083955;28;20265;-56
2022/10/06 02:25:39;;;;;;;3.87;1.00;;;14.00;99.90;;;;;;5083136;28;20200;-59
2022/10/06 02:28:04;;;;;;;5.90;1.40;;;13.90;99.90;;;;;;5076847;28;20219;-57
2022/10/06 02:30:30;;;;;;;5.83;1.20;;;14.00;99.90;;;;;;5073241;28;20280;-56
2022/10/06 02:32:55;;;;;;;1.73;0.93;;;14.00;99.90;;;;;;5078883;28;20610;-51
2022/10/06 02:35:21;;;;;;;11.67;1.70;;;14.00;99.90;;;;;;5083234;28;20750;-62
2022/10/06 02:37:47;;;;;;;4.70;0.93;;;14.00;99.90;;;;;;5087566;28;20959;-56
2022/10/06 02:40:15;;;;;;;3.53;1.03;;;14.10;99.90;;;;;;5086911;28;20575;-54
2022/10/06 02:42:40;;;;;;;5.53;1.00;;;14.10;99.90;;;;;;5073562;28;20793;-56
2022/10/06 02:45:06;;;;;;;3.03;1.00;;;14.00;99.90;;;;;;5083168;28;20438;-56
2022/10/06 02:47:33;;;;;;;5.97;1.20;;;14.00;99.90;;;;;;5088475;28;20236;-56
2022/10/06 02:50:05;;;;;;;4.73;1.47;;;14.00;99.90;;;;;;5088288;28;20505;-53
2022/10/06 02:52:37;;;;;;;8.97;2.30;;;14.00;99.90;;;;;;5080615;28;20450;-56
2022/10/06 02:55:04;;;;;;;2.00;1.20;;;13.90;99.90;;;;;;5089918;28;20458;-54
2022/10/06 02:57:30;;;;;;;5.80;1.50;;;13.90;99.90;;;;;;5088667;28;20500;-56
2022/10/06 02:59:56;;;;;;;5.47;1.20;;;13.80;99.90;;;;;;5085599;28;20443;-56
2022/10/06 03:02:22;;;;;;;4.50;2.30;;;13.80;99.90;;;;;;5074727;28;20200;-53
2022/10/06 03:04:47;;;;;;;10.83;1.60;;;13.80;99.90;;;;;;5071362;28;20245;-56
2022/10/06 03:07:14;;;;;;;6.10;1.67;;;13.80;99.90;;;;;;5077975;28;20439;-56
2022/10/06 03:09:40;;;;;;;6.53;1.37;;;13.70;99.90;;;;;;5071745;28;20193;-56
2022/10/06 03:12:07;;;;;;;8.03;1.50;;;13.70;99.90;;;;;;5079611;28;20805;-56
2022/10/06 03:14:32;;;;;;;7.70;1.40;;;13.60;99.90;;;;;;5072559;28;21424;-56
2022/10/06 03:16:58;;;;;;;3.80;1.50;;;13.70;99.90;;;;;;5080274;28;20541;-55
2022/10/06 03:19:24;;;;;;;7.37;1.43;;;13.60;99.90;;;;;;5084849;28;20550;-56
2022/10/06 03:21:49;;;;;;;5.27;1.67;;;13.60;99.90;;;;;;5071070;28;20190;-56
2022/10/06 03:24:15;;;;;;;5.23;1.53;;;13.60;99.90;;;;;;5074835;28;20193;-56
2022/10/06 03:26:44;;;;;;;7.60;1.73;;;13.60;99.90;;;;;;5084507;28;20615;-57
2022/10/06 03:29:09;;;;;;;4.63;1.50;;;13.60;99.90;;;;;;5088418;28;20538;-56
2022/10/06 03:31:35;;;;;;;12.93;2.40;;;13.50;99.90;;;;;;5080394;28;20432;-55
2022/10/06 03:34:01;;;;;;;10.40;1.80;;;13.60;99.90;;;;;;5077857;28;20435;-56
2022/10/06 03:36:31;;;;;;;6.90;2.10;;;13.50;99.90;;;;;;5072180;28;20913;-56
2022/10/06 03:38:57;;;;;;;5.50;1.77;;;13.50;99.90;;;;;;5087919;28;20442;-56
2022/10/06 03:41:25;;;;;;;5.90;1.73;;;13.50;99.90;;;;;;5085047;28;20524;-56
2022/10/06 03:43:53;;;;;;;8.93;1.57;;;13.50;99.90;;;;;;5081488;28;20443;-56
2022/10/06 03:46:21;;;;;;;9.50;2.20;;;13.40;99.90;;;;;;5074927;28;20928;-56
2022/10/06 03:48:48;;;;;;;6.43;1.80;;;13.40;99.90;;;;;;5071352;28;21220;-56
2022/10/06 03:51:21;;;;;;;11.33;1.93;;;13.40;99.90;;;;;;5074958;28;20554;-56
2022/10/06 03:53:49;;;;;;;9.50;1.80;;;13.30;99.90;;;;;;5085681;28;20805;-49
2022/10/06 03:56:23;;;;;;;11.00;2.20;;;13.30;92.90;;;;;;5089124;28;20798;-56
2022/10/06 03:58:54;;;;;;;11.57;2.83;;;13.20;89.30;;;;;;5086193;28;20432;-56
2022/10/06 04:01:29;;;;;;;12.80;2.80;;;13.20;90.00;;;;;;5080926;28;20479;-55
2022/10/06 04:03:57;;;;;;;8.00;2.23;;;13.20;65.50;;;;;;5075689;28;20441;-55
2022/10/06 04:06:24;;;;;;;17.80;2.93;;;13.20;49.30;;;;;;5071585;28;20423;-56
2022/10/06 04:08:51;;;;;;;9.00;2.80;;;13.10;36.80;;;;;;5070718;28;20467;-56
2022/10/06 04:11:21;;;;;;;19.63;3.17;;;13.10;48.50;;;;;;5069333;28;20427;-56
2022/10/06 04:13:52;;;;;;;17.47;3.20;;;13.10;45.70;;;;;;5083908;28;20484;-55
2022/10/06 04:16:18;;;;;;;12.27;2.57;;;13.00;44.50;;;;;;5076059;28;21007;-55
2022/10/06 04:18:47;;;;;;;14.03;2.50;;;13.00;53.80;;;;;;5072339;28;20523;-55
2022/10/06 04:21:13;;;;;;;13.57;3.00;;;13.00;51.40;;;;;;5071079;28;21253;-56
2022/10/06 04:23:40;;;;;;;12.30;3.80;;;13.00;57.10;;;;;;5070027;28;20424;-56
2022/10/06 04:26:17;;;;;;;12.33;3.63;;;13.00;49.60;;;;;;5069515;28;20408;-57
2022/10/06 04:28:44;;;;;;;15.27;3.70;;;13.10;49.00;;;;;;5083495;28;20517;-55
2022/10/06 04:31:21;;;;;;;13.33;2.90;;;13.00;57.60;;;;;;5082949;28;20424;-57
2022/10/06 04:33:53;;;;;;;8.03;1.97;;;13.00;72.00;;;;;;5075756;28;20426;-60
2022/10/06 04:36:22;;;;;;;13.63;3.00;;;12.90;94.00;;;;;;5072817;28;20511;-55
2022/10/06 04:38:57;;;;;;;14.07;2.73;;;12.90;99.90;;;;;;5070721;28;20516;-55
2022/10/06 04:41:28;;;;;;;15.87;3.23;;;12.90;99.90;;;;;;5069622;28;20431;-56
2022/10/06 04:43:54;;;;;;;11.50;3.77;;;12.90;99.90;;;;;;5078679;28;20427;-56
2022/10/06 04:46:21;;;;;;;11.37;2.70;;;12.90;99.90;;;;;;5084243;28;21270;-56
2022/10/06 04:48:49;;;;;;;18.23;3.70;;;12.80;99.90;;;;;;5081312;28;20434;-56
2022/10/06 04:51:16;;;;;;;15.00;3.47;;;12.80;99.90;;;;;;5074273;28;20422;-55
2022/10/06 04:53:45;;;;;;;16.10;3.80;;;12.80;99.90;;;;;;5070318;28;20975;-56
2022/10/06 04:56:20;;;;;;;13.47;2.93;;;12.70;99.90;;;;;;5069548;28;20467;-56
2022/10/06 04:58:50;;;;;;;8.17;2.70;;;12.70;99.90;;;;;;5080485;28;20443;-56
2022/10/06 05:01:17;;;;;;;13.23;2.37;;;12.70;99.90;;;;;;5081745;28;20439;-55
2022/10/06 05:03:44;;;;;;;10.67;2.53;;;12.70;99.90;;;;;;5071807;28;20504;-55
2022/10/06 05:06:18;;;;;;;13.70;2.73;;;12.60;99.90;;;;;;5086505;28;20442;-56
2022/10/06 05:08:48;;;;;;;10.23;2.27;;;12.60;99.90;;;;;;5076016;28;20478;-56
2022/10/06 05:11:14;;;;;;;12.97;4.33;;;12.60;99.90;;;;;;5069212;28;20458;-56
2022/10/06 05:13:39;;;;;;;15.30;2.83;;;12.60;99.90;;;;;;5068709;28;20458;-56
2022/10/06 05:16:07;;;;;;;9.00;2.90;;;12.60;99.90;;;;;;5077692;28;20472;-56
2022/10/06 05:18:34;;;;;;;13.57;2.07;;;12.60;99.90;;;;;;5080247;28;20206;-56
2022/10/06 05:21:06;;;;;;;7.27;1.77;;;12.60;99.90;;;;;;5084531;28;20977;-57
2022/10/06 05:23:35;;;;;;;9.00;2.60;;;12.60;99.90;;;;;;5075277;28;20435;-57
2022/10/06 05:26:01;;;;;;;15.53;3.00;;;12.60;91.30;;;;;;5086348;28;20434;-56
2022/10/06 05:28:28;;;;;;;10.33;2.33;;;12.60;56.70;;;;;;5084461;28;20439;-48
2022/10/06 05:31:01;;;;;;;10.53;1.90;;;12.60;24.20;;;;;;5075205;28;20548;-55
2022/10/06 05:33:29;;;;;;;6.97;2.00;;;12.50;17.50;;;;;;5075067;28;20435;-55
2022/10/06 05:36:10;;;;;;;8.00;2.20;;;12.50;7.30;;;;;;5079368;28;20941;-53
2022/10/06 05:38:36;;;;;;;12.43;2.43;;;12.50;17.70;;;;;;5075384;28;20440;-55
2022/10/06 05:41:40;;;;;;;10.30;2.80;;;12.50;13.90;;;;;;5082976;28;20486;-55
2022/10/06 05:44:07;;;;;;;8.37;2.70;;;12.50;11.90;;;;;;5011257;28;20466;-55
2022/10/06 05:46:33;;;;;;;19.53;4.17;;;12.40;15.10;;;;;;5026171;28;20429;-56
2022/10/06 05:49:04;;;;;;;8.93;3.03;;;12.40;25.20;;;;;;5056035;28;20427;-55
2022/10/06 05:51:32;;;;;;;14.47;3.33;;;12.40;29.20;;;;;;5078738;28;20440;-56
2022/10/06 05:53:58;;;;;;;15.10;3.57;;;12.50;24.20;;;;;;5078824;28;20464;-54
2022/10/06 05:56:43;;;;;;;14.00;3.00;;;12.50;25.00;;;;;;5084810;28;20435;-56
2022/10/06 05:59:09;;;;;;;18.13;3.90;;;12.50;25.00;;;;;;5077986;28;20458;-56
2022/10/06 06:01:38;;;;;;;17.63;4.10;;;12.50;35.30;;;;;;5079134;28;20462;-54
2022/10/06 06:04:06;;;;;;;19.87;4.20;;;12.50;44.20;;;;;;5075107;28;20576;-56
2022/10/06 06:06:37;;;;;;;17.90;4.27;;;12.60;47.30;;;;;;5078489;28;20426;-55
2022/10/06 06:09:03;;;;;;;20.40;4.43;;;12.50;57.40;;;;;;5082847;28;20407;-55
2022/10/06 06:11:30;;;;;;;17.17;3.23;;;12.50;76.70;;;;;;5084021;28;20481;-55
2022/10/06 06:13:57;;;;;;;10.83;3.83;;;12.50;93.60;;;;;;5075367;28;20182;-57
2022/10/06 06:16:23;;;;;;;22.10;3.90;;;12.50;95.10;;;;;;5073940;28;20423;-55
2022/10/06 06:18:49;;;;;;;16.23;4.10;;;12.50;94.10;;;;;;5072766;28;20769;-55
2022/10/06 06:21:15;;;;;;;19.63;3.90;;;12.50;99.90;;;;;;5078287;28;20488;-56
2022/10/06 06:23:44;;;;;;;17.30;4.33;;;12.50;99.90;;;;;;5084546;28;20262;-55
2022/10/06 06:26:13;;;;;;;17.13;4.73;;;12.60;99.90;;;;;;5075159;28;20797;-56
2022/10/06 06:28:40;;;;;;;16.53;4.27;;;12.50;94.30;;;;;;5074847;28;20451;-56
2022/10/06 06:31:13;;;;;;;18.40;4.40;;;12.60;84.10;;;;;;5089556;28;20462;-56
2022/10/06 06:33:40;;;;;;;14.47;4.50;;;12.60;53.20;;;;;;5086605;28;20449;-54
2022/10/06 06:36:16;;;;;;;10.73;3.50;;;12.60;45.40;;;;;;5076243;28;20467;-55
2022/10/06 06:38:45;;;;;;;21.47;4.83;;;12.60;24.50;;;;;;5087919;28;20527;-56
2022/10/06 06:41:16;;;;;;;13.80;4.23;;;12.60;18.40;;;;;;5075876;28;20461;-56
2022/10/06 06:43:41;;;;;;;16.23;4.63;;;12.70;4.60;;;;;;5075450;28;20450;-55
2022/10/06 06:46:07;;;;;;;17.40;4.00;;;12.70;1.00;;;;;;5075522;28;20446;-56
2022/10/06 06:48:36;;;;;;;17.87;3.07;;;12.80;1.00;;;;;;5083489;28;20181;-55
2022/10/06 06:51:06;;;;;;;14.17;3.27;;;12.90;1.00;;;;;;5074700;28;20173;-56
2022/10/06 06:53:32;;;;;;;13.30;4.17;;;12.90;1.00;;;;;;5086583;28;20449;-56
2022/10/06 06:55:58;;;;;;;10.17;2.90;;;12.90;1.00;;;;;;5080295;28;20468;-56
2022/10/06 06:58:23;;;;;;;9.40;3.00;;;12.90;1.00;;;;;;5078287;28;20447;-45
2022/10/06 07:00:49;;;;;;;12.70;2.73;;;12.90;1.00;;;;;;5081466;28;20189;-56
2022/10/06 07:03:17;;;;;;;12.47;2.87;;;13.00;1.00;;;;;;5076518;28;20182;-57
2022/10/06 07:05:46;;;;;;;18.77;3.83;;;13.00;1.00;;;;;;5082910;28;20475;-55
2022/10/06 07:08:19;;;;;;;13.47;3.60;;;13.10;1.00;;;;;;5081261;28;20423;-56
2022/10/06 07:10:45;;;;;;;9.73;3.50;;;13.10;1.00;;;;;;5081498;28;20514;-55
2022/10/06 07:13:15;;;;;;;12.07;3.20;;;13.10;1.00;;;;;;5083666;28;20422;-56
2022/10/06 07:26:40;;;;;;;11.30;2.53;;;13.60;1.00;;;;;;5091167;28;20407;-56
2022/10/06 07:29:05;;;;;;;14.80;2.60;;;14.00;1.00;;;;;;5091484;28;20430;-50
2022/10/06 07:31:33;;;;;;;12.63;2.33;;;14.60;1.00;;;;;;5091211;28;20227;-55
2022/10/06 07:34:01;;;;;;;8.23;2.50;;;15.30;1.00;;;;;;5091178;28;20169;-55
2022/10/06 07:36:27;;;;;;;11.17;2.10;;;16.00;1.00;;;;;;5091181;28;20586;-56
2022/10/06 07:38:54;;;;;;;15.80;3.03;;;16.70;1.00;;;;;;5091235;28;20494;-55
2022/10/06 07:41:20;;;;;;;8.10;2.40;;;17.00;1.00;;;;;;5091223;28;20416;-56
2022/10/06 07:43:46;;;;;;;14.23;2.70;;;17.10;1.00;;;;;;5086097;28;20431;-56
2022/10/06 07:46:12;;;;;;;13.80;2.63;;;17.30;1.00;;;;;;5070512;28;20412;-56
2022/10/06 07:48:38;;;;;;;18.73;4.30;;;17.70;1.00;;;;;;5070665;28;20436;-48
2022/10/06 07:51:12;;;;;;;7.93;2.90;;;17.70;1.00;;;;;;5070739;28;20428;-56
2022/10/06 07:53:37;;;;;;;18.90;3.60;;;17.70;1.00;;;;;;5077187;28;20189;-56
2022/10/06 07:56:05;;;;;;;10.13;1.90;;;18.10;1.00;;;;;;5089420;28;20458;-56
2022/10/06 07:58:31;;;;;;;15.90;3.20;;;18.30;1.00;;;;;;5090732;28;20188;-56
2022/10/06 08:01:05;;;;;;;11.13;2.60;;;18.50;1.00;;;;;;5090116;28;20488;-56
2022/10/06 08:03:31;;;;;;;8.17;2.50;;;18.40;1.00;;;;;;5090415;28;20434;-57
2022/10/06 08:05:59;;;;;;;10.40;2.60;;;18.40;1.00;;;;;;5090731;28;20473;-57
2022/10/06 08:08:26;;;;;;;8.50;2.50;;;18.30;1.00;;;;;;5090507;28;20490;-56
2022/10/06 08:10:57;;;;;;;4.13;1.97;;;18.50;1.00;;;;;;5090631;28;20468;-58
2022/10/06 08:13:23;;;;;;;10.37;2.60;;;18.20;1.00;;;;;;5090417;28;20418;-57
2022/10/06 08:15:50;;;;;;;9.03;2.70;;;18.40;1.00;;;;;;5072194;28;20492;-56
2022/10/06 08:18:20;;;;;;;15.53;4.03;;;18.40;1.00;;;;;;5070289;28;20485;-57
2022/10/06 08:20:46;;;;;;;19.77;4.60;;;18.60;1.00;;;;;;5070269;28;20427;-57
2022/10/06 08:23:12;;;;;;;10.90;3.03;;;19.00;1.00;;;;;;5068928;28;20454;-56
2022/10/06 08:25:42;;;;;;;14.23;2.80;;;19.10;1.00;;;;;;5070137;28;20412;-57
2022/10/06 08:28:08;;;;;;;10.00;2.40;;;19.10;1.00;;;;;;5070018;28;20494;-57
2022/10/06 08:30:34;;;;;;;13.20;3.17;;;19.10;1.00;;;;;;5068910;28;21004;-58
2022/10/06 08:33:00;;;;;;;17.63;2.83;;;19.20;1.00;;;;;;5069734;28;20498;-57
2022/10/06 08:35:25;;;;;;;11.23;3.57;;;19.20;1.00;;;;;;5070209;28;20304;-58
2022/10/06 08:37:52;;;;;;;16.43;3.50;;;19.20;1.00;;;;;;5069679;28;20173;-58
2022/10/06 08:40:18;;;;;;;8.83;2.50;;;19.00;1.00;;;;;;5069506;28;20204;-57
2022/10/06 08:42:49;;;;;;;8.30;2.10;;;18.70;1.00;;;;;;5070033;28;20404;-57
2022/10/06 08:45:39;;;;;;;13.00;2.97;;;18.60;1.00;;;;;;5082232;28;20448;-56
2022/10/06 08:48:12;;;;;;;17.13;2.67;;;18.30;1.00;;;;;;5069504;28;20412;-63
2022/10/06 08:51:03;;;;;;;14.10;2.70;;;18.00;1.00;;;;;;5069596;28;20424;-56
2022/10/06 08:53:34;;;;;;;25.37;2.67;;;17.40;1.00;;;;;;5069939;28;20422;-57
2022/10/06 08:56:19;;;;;;;10.60;2.43;;;17.10;1.00;;;;;;5069384;28;20983;-58
2022/10/06 08:59:03;;;;;;;10.83;2.33;;;17.00;1.00;;;;;;5069663;28;20911;-57
2022/10/06 09:01:50;;;;;;;9.70;2.40;;;16.70;1.00;;;;;;5069671;28;20442;-57
2022/10/06 09:04:25;;;;;;;13.10;2.80;;;16.30;1.00;;;;;;5069649;28;20553;-57
2022/10/06 09:07:09;;;;;;;8.17;2.30;;;16.20;1.00;;;;;;5069763;28;20458;-56
2022/10/06 09:09:47;;;;;;;10.70;2.67;;;16.10;1.00;;;;;;5069746;28;20573;-57
2022/10/06 09:12:19;;;;;;;9.60;2.67;;;15.90;1.00;;;;;;5076160;28;20442;-56
2022/10/06 09:15:05;;;;;;;8.20;2.03;;;15.80;1.00;;;;;;5073435;28;20468;-55
2022/10/06 09:17:36;;;;;;;12.47;2.00;;;15.80;1.00;;;;;;5073974;28;20894;-56
2022/10/06 09:20:19;;;;;;;7.80;2.40;;;15.90;1.00;;;;;;5073561;28;20742;-57
2022/10/06 09:22:47;;;;;;;10.87;2.13;;;15.90;1.00;;;;;;5073594;28;21303;-54
2022/10/06 09:25:20;;;;;;;8.00;1.50;;;15.90;1.00;;;;;;5073576;28;20495;-56
2022/10/06 09:27:51;;;;;;;8.30;2.60;;;16.00;1.00;;;;;;5073379;28;20412;-56
2022/10/06 09:30:18;;;;;;;12.00;2.17;;;16.00;1.00;;;;;;5073293;28;20400;-55
2022/10/06 09:32:46;;;;;;;13.40;2.27;;;16.00;1.00;;;;;;5073088;28;20810;-56
2022/10/06 09:35:18;;;;;;;8.93;2.30;;;16.00;1.00;;;;;;5073976;28;20862;-57
2022/10/06 09:38:02;;;;;;;9.40;1.90;;;15.80;1.00;;;;;;5073407;28;20469;-56
2022/10/06 09:41:00;;;;;;;8.13;2.30;;;15.90;1.00;;;;;;5072900;28;20412;-53
2022/10/06 09:43:28;;;;;;;7.93;1.90;;;15.90;1.00;;;;;;5038827;28;20428;-52
2022/10/06 09:45:56;;;;;;;13.77;2.20;;;15.90;1.00;;;;;;5073099;28;20483;-55
2022/10/06 09:48:24;;;;;;;10.23;2.20;;;15.90;1.00;;;;;;5073349;28;20488;-58
2022/10/06 09:51:13;;;;;;;15.20;2.93;;;16.00;1.00;;;;;;5072833;28;20424;-56
2022/10/06 09:53:39;;;;;;;13.50;2.20;;;16.10;1.00;;;;;;5072660;28;20488;-54
2022/10/06 09:56:20;;;;;;;9.00;2.10;;;16.20;1.00;;;;;;5072988;28;20833;-57
2022/10/06 09:58:57;;;;;;;11.80;2.73;;;16.30;1.00;;;;;;5073093;28;20419;-48
2022/10/06 10:01:25;;;;;;;12.60;2.20;;;16.40;1.00;;;;;;5072534;28;20450;-55
2022/10/06 10:03:54;;;;;;;14.73;2.83;;;16.40;1.00;;;;;;5081217;28;20460;-52
2022/10/06 10:06:30;;;;;;;10.93;2.40;;;16.60;1.00;;;;;;5092796;28;20403;-55
2022/10/06 10:09:18;;;;;;;8.90;2.50;;;16.70;1.00;;;;;;5091250;28;21147;-54
2022/10/06 10:14:37;;;;;;;13.80;2.87;;;17.10;1.00;;;;;;5092144;28;20818;-49
2022/10/06 10:17:19;;;;;;;20.23;3.90;;;17.30;1.00;;;;;;5092642;28;20407;-55
2022/10/06 10:19:52;;;;;;;12.43;3.00;;;17.20;1.00;;;;;;5092869;28;20983;-58
2022/10/06 10:22:32;;;;;;;13.60;2.70;;;17.50;1.00;;;;;;5091908;28;20494;-55
2022/10/06 10:25:23;;;;;;;15.20;2.60;;;17.50;1.00;;;;;;5092548;28;20831;-57
2022/10/06 10:28:02;;;;;;;10.47;2.27;;;17.70;1.00;;;;;;5092364;28;20503;-57
2022/10/06 10:30:37;;;;;;;10.73;2.30;;;18.40;1.00;;;;;;5091832;28;20476;-58
2022/10/06 10:33:14;;;;;;;17.83;2.97;;;18.50;1.00;;;;;;5092325;28;20786;-56
2022/10/06 10:35:47;;;;;;;9.43;2.47;;;18.60;1.00;;;;;;5092279;28;20477;-57
2022/10/06 10:38:19;;;;;;;11.33;2.00;;;18.40;1.00;;;;;;5092047;28;20527;-56
2022/10/06 10:41:12;;;;;;;6.60;2.17;;;18.50;1.00;;;;;;5076786;28;20436;-57
2022/10/06 10:43:54;;;;;;;5.60;1.90;;;19.30;1.00;;;;;;5072162;28;20408;-56
2022/10/06 10:46:22;;;;;;;12.20;3.13;;;20.30;1.00;;;;;;5071447;28;20396;-58
2022/10/06 10:48:57;;;;;;;14.80;2.20;;;21.90;99.90;;;;;;5071875;28;20424;-54
2022/10/06 10:51:30;;;;;;;11.93;2.20;;;22.60;99.90;;;;;;5071794;28;20502;-56
2022/10/06 10:54:08;;;;;;;13.40;2.87;;;23.40;99.90;;;;;;5071768;28;20423;-56
2022/10/06 10:56:34;;;;;;;13.70;3.00;;;24.00;99.90;;;;;;5071762;28;20392;-53
2022/10/06 10:59:18;;;;;;;7.53;2.77;;;23.90;99.90;;;;;;5070564;28;20801;-57
2022/10/06 11:01:59;;;;;;;11.23;2.53;;;23.30;99.90;;;;;;5071818;28;20604;-54
2022/10/06 11:04:25;;;;;;;9.23;2.27;;;23.00;99.90;;;;;;5071343;28;20460;-57
2022/10/06 11:07:04;;;;;;;15.87;2.77;;;22.80;99.90;;;;;;5071842;28;20412;-57
2022/10/06 11:09:32;;;;;;;6.87;1.77;;;22.90;99.90;;;;;;5071762;28;20399;-58
2022/10/06 11:12:05;;;;;;;6.93;2.00;;;23.50;99.90;;;;;;5071805;28;20400;-55
2022/10/06 11:14:54;;;;;;;8.20;2.80;;;24.40;99.90;;;;;;5071263;28;20452;-58
2022/10/06 11:17:42;;;;;;;13.00;2.00;;;25.00;99.90;;;;;;5071293;28;20398;-58
2022/10/06 11:20:37;;;;;;;12.63;2.73;;;25.10;99.90;;;;;;5071676;28;20507;-58
2022/10/06 11:23:30;;;;;;;14.50;2.03;;;24.90;99.90;;;;;;5071382;28;20481;-58
2022/10/06 11:26:34;;;;;;;5.37;1.83;;;24.80;99.90;;;;;;5070845;28;21176;-57
2022/10/06 11:29:13;;;;;;;9.70;2.80;;;24.60;99.90;;;;;;5071630;28;20481;-58
2022/10/06 11:32:25;;;;;;;9.43;2.30;;;24.80;99.90;;;;;;5076582;28;20422;-58
2022/10/06 11:34:51;;;;;;;9.43;2.50;;;25.40;99.90;;;;;;5039736;28;20492;-50
2022/10/06 11:37:23;;;;;;;4.53;1.90;;;24.90;99.90;;;;;;5091349;28;20395;-58
2022/10/06 11:39:58;;;;;;;6.23;2.27;;;24.30;99.90;;;;;;5090948;28;20395;-58
2022/10/06 11:42:41;;;;;;;11.30;2.40;;;24.60;99.90;;;;;;5091311;28;20398;-59
2022/10/06 11:45:13;;;;;;;7.90;1.70;;;25.30;99.90;;;;;;5091014;28;20429;-57
2022/10/06 11:48:00;;;;;;;8.50;3.00;;;25.30;99.90;;;;;;5091305;28;20448;-59
2022/10/06 11:50:41;;;;;;;14.03;3.10;;;25.40;99.90;;;;;;5087843;28;20416;-59
2022/10/06 11:53:31;;;;;;;6.27;2.20;;;26.10;99.90;;;;;;5109507;28;20410;-60
2022/10/06 11:56:15;;;;;;;11.70;2.80;;;26.60;99.90;;;;;;5069358;28;20473;-59
2022/10/06 11:58:50;;;;;;;10.83;2.27;;;26.00;99.90;;;;;;5070676;28;20411;-59
2022/10/06 12:01:31;;;;;;;4.00;1.77;;;25.60;99.90;;;;;;5070552;28;20438;-60
2022/10/06 12:04:09;;;;;;;6.13;1.57;;;26.00;99.90;;;;;;5070201;28;20420;-59
2022/10/06 12:06:44;;;;;;;6.40;1.70;;;25.80;99.90;;;;;;5070446;28;20404;-60
2022/10/06 12:09:24;;;;;;;6.33;1.50;;;25.50;99.90;;;;;;5070393;28;20502;-59
2022/10/06 12:12:20;;;;;;;9.70;3.93;;;25.60;99.90;;;;;;5073871;28;20866;-59
2022/10/06 12:14:53;;;;;;;16.77;3.40;;;25.40;99.90;;;;;;5087751;28;20482;-59
2022/10/06 12:17:18;;;;;;;7.93;1.83;;;24.20;99.90;;;;;;5090143;28;20884;-59
2022/10/06 12:19:47;;;;;;;8.17;1.90;;;24.20;99.90;;;;;;5086541;28;20501;-60
2022/10/06 12:22:24;;;;;;;8.67;1.80;;;24.60;99.90;;;;;;5076668;28;20264;-61
2022/10/06 12:25:01;;;;;;;4.93;1.50;;;24.90;99.90;;;;;;5080742;28;20770;-58
2022/10/06 12:27:48;;;;;;;4.83;1.47;;;25.10;99.90;;;;;;5082541;28;20774;-59
2022/10/06 12:30:25;;;;;;;6.63;2.20;;;25.10;99.90;;;;;;5087459;28;20419;-46
2022/10/06 12:32:53;;;;;;;9.93;2.23;;;25.00;99.90;;;;;;5073885;28;20446;-48
2022/10/06 12:35:34;;;;;;;5.13;1.30;;;25.20;99.90;;;;;;5070089;28;20501;-46
2022/10/06 12:38:04;;;;;;;6.80;1.83;;;25.80;99.90;;;;;;5069949;28;20423;-46
2022/10/06 12:40:42;;;;;;;10.90;3.00;;;26.20;99.90;;;;;;5083574;28;21249;-46
2022/10/06 12:43:17;;;;;;;6.47;2.30;;;27.10;99.90;;;;;;5085697;28;20423;-46
2022/10/06 12:45:43;;;;;;;8.87;1.43;;;27.60;99.90;;;;;;5085574;28;20434;-47
2022/10/06 12:48:48;;;;;;;4.53;1.63;;;27.70;99.90;;;;;;5080458;28;20438;-46
2022/10/06 12:51:29;;;;;;;8.13;3.10;;;27.50;99.90;;;;;;5080152;28;20437;-45
2022/10/06 12:54:04;;;;;;;6.90;2.53;;;27.30;99.90;;;;;;5072743;28;20439;-46
2022/10/06 12:56:36;;;;;;;6.37;2.40;;;26.10;99.90;;;;;;5083678;28;20462;-46
2022/10/06 12:59:23;;;;;;;8.40;2.57;;;25.20;99.90;;;;;;5085421;28;20776;-46
2022/10/06 13:01:51;;;;;;;10.90;2.93;;;25.10;99.90;;;;;;5082804;28;20427;-46
2022/10/06 13:04:33;;;;;;;7.77;2.73;;;25.00;99.90;;;;;;5069374;28;20471;-46
2022/10/06 13:07:18;;;;;;;14.63;2.63;;;25.40;99.90;;;;;;5068883;28;20496;-46
2022/10/06 13:09:46;;;;;;;7.10;2.50;;;25.60;99.90;;;;;;5069878;28;20404;-46
2022/10/06 13:12:26;;;;;;;13.70;3.20;;;24.70;99.90;;;;;;5069824;28;20542;-45
2022/10/06 13:15:19;;;;;;;5.00;1.50;;;24.60;99.90;;;;;;5069190;28;20502;-45
2022/10/06 13:17:55;;;;;;;8.33;2.10;;;24.60;99.90;;;;;;5069757;28;20776;-46
2022/10/06 13:20:32;;;;;;;7.27;2.10;;;24.40;99.90;;;;;;5077165;28;20479;-46
2022/10/06 13:23:20;;;;;;;5.37;1.63;;;24.20;99.90;;;;;;5087307;28;20881;-46